Time;durP1;ratioP1;P1;durP2;ratioP2;P2;SDS_P1;SDS_P2;PMS_P1;PMS_P2;Temp;Humidity;BMP_temperature;BMP_pressure;BME280_temperature;BME280_humidity;BME280_pressure;Samples;Min_cycle;Max_cycle;Signal;HPM_P1;HPM_P2
2022/06/27 00:01:36;;;;;;;9.27;5.22;;;;;;;;;;5052299;28;20037;-75
2022/06/27 00:04:02;;;;;;;7.15;5.15;;;;;;;;;;5034818;28;20099;-75
2022/06/27 00:06:28;;;;;;;7.18;5.50;;;;;;;;;;5052012;28;20053;-75
2022/06/27 00:08:54;;;;;;;7.82;5.07;;;;;;;;;;5035144;28;20055;-75
2022/06/27 00:11:21;;;;;;;8.02;5.20;;;;;;;;;;5052542;28;20033;-75
2022/06/27 00:13:48;;;;;;;7.60;5.18;;;;;;;;;;5051184;28;20049;-75
2022/06/27 00:16:14;;;;;;;8.40;5.25;;;;;;;;;;5052081;28;20116;-75
2022/06/27 00:18:40;;;;;;;8.90;5.13;;;;;;;;;;5050826;28;20489;-75
2022/06/27 00:21:06;;;;;;;9.50;5.50;;;;;;;;;;5051416;28;20037;-75
2022/06/27 00:23:32;;;;;;;10.95;5.63;;;;;;;;;;5051869;28;20041;-75
2022/06/27 00:25:58;;;;;;;9.13;5.45;;;;;;;;;;5051370;28;20043;-75
2022/06/27 00:28:24;;;;;;;7.85;5.60;;;;;;;;;;5051865;28;20063;-75
2022/06/27 00:30:50;;;;;;;8.13;5.40;;;;;;;;;;5034471;28;20056;-75
2022/06/27 00:33:16;;;;;;;7.63;5.60;;;;;;;;;;5051872;28;20486;-75
2022/06/27 00:35:42;;;;;;;9.38;5.20;;;;;;;;;;5051817;28;20103;-75
2022/06/27 00:38:09;;;;;;;8.35;5.03;;;;;;;;;;5051399;28;20509;-75
2022/06/27 00:40:35;;;;;;;7.32;5.55;;;;;;;;;;5051309;28;20421;-75
2022/06/27 00:43:01;;;;;;;8.23;5.90;;;;;;;;;;5051642;28;20473;-75
2022/06/27 00:45:27;;;;;;;8.38;5.68;;;;;;;;;;5033101;28;20041;-75
2022/06/27 00:47:53;;;;;;;7.60;5.70;;;;;;;;;;5050963;28;20052;-75
2022/06/27 00:50:19;;;;;;;8.27;5.50;;;;;;;;;;5051114;28;20043;-75
2022/06/27 00:52:46;;;;;;;9.88;5.82;;;;;;;;;;5050663;28;20107;-75
2022/06/27 00:55:12;;;;;;;6.75;5.18;;;;;;;;;;5051178;28;20556;-75
2022/06/27 00:57:38;;;;;;;7.72;5.82;;;;;;;;;;5051292;28;20051;-75
2022/06/27 01:00:05;;;;;;;6.47;5.53;;;;;;;;;;5034255;28;20037;-75
2022/06/27 01:02:31;;;;;;;9.57;5.95;;;;;;;;;;5037209;28;20032;-75
2022/06/27 01:04:57;;;;;;;8.30;5.63;;;;;;;;;;5052190;28;20098;-75
2022/06/27 01:07:23;;;;;;;12.43;6.65;;;;;;;;;;5051017;28;20394;-75
2022/06/27 01:09:49;;;;;;;7.60;6.03;;;;;;;;;;5050324;28;20037;-75
2022/06/27 01:12:16;;;;;;;8.82;6.30;;;;;;;;;;5051188;28;20037;-75
2022/06/27 01:14:42;;;;;;;10.65;6.25;;;;;;;;;;5067943;28;20036;-75
2022/06/27 01:17:10;;;;;;;8.57;6.35;;;;;;;;;;5047863;28;20048;-75
2022/06/27 01:19:36;;;;;;;11.48;6.70;;;;;;;;;;5070885;28;20044;-75
2022/06/27 01:22:06;;;;;;;8.57;6.10;;;;;;;;;;5038812;28;20044;-75
2022/06/27 01:24:32;;;;;;;8.77;5.70;;;;;;;;;;5070966;28;20071;-75
2022/06/27 01:26:58;;;;;;;9.57;6.32;;;;;;;;;;5050817;28;20051;-75
2022/06/27 01:29:24;;;;;;;8.35;6.10;;;;;;;;;;5049470;28;20393;-75
2022/06/27 01:31:51;;;;;;;9.63;6.45;;;;;;;;;;5053571;28;20504;-75
2022/06/27 01:34:17;;;;;;;15.80;6.95;;;;;;;;;;5037592;28;20043;-75
2022/06/27 01:36:44;;;;;;;9.98;6.53;;;;;;;;;;5071751;28;20044;-75
2022/06/27 01:39:11;;;;;;;10.85;6.45;;;;;;;;;;5050032;28;20553;-75
2022/06/27 01:41:38;;;;;;;9.38;6.90;;;;;;;;;;5050373;28;20115;-74
2022/06/27 01:44:05;;;;;;;9.60;6.85;;;;;;;;;;5050514;28;20044;-75
2022/06/27 01:46:41;;;;;;;13.48;7.22;;;;;;;;;;5050189;28;20041;-75
2022/06/27 01:49:07;;;;;;;9.57;6.75;;;;;;;;;;5050114;28;20497;-75
2022/06/27 01:51:34;;;;;;;9.70;6.78;;;;;;;;;;5050268;28;20036;-75
2022/06/27 01:54:00;;;;;;;9.82;6.60;;;;;;;;;;5049818;28;20091;-75
2022/06/27 01:56:26;;;;;;;7.47;6.32;;;;;;;;;;5034565;28;20068;-75
2022/06/27 01:58:57;;;;;;;7.30;6.20;;;;;;;;;;5056664;28;20087;-75
2022/06/27 02:01:23;;;;;;;11.25;6.90;;;;;;;;;;5052653;28;20111;-75
2022/06/27 02:03:49;;;;;;;8.90;7.22;;;;;;;;;;5056183;28;20079;-76
2022/06/27 02:06:16;;;;;;;10.82;6.80;;;;;;;;;;5055569;28;20041;-76
2022/06/27 02:08:46;;;;;;;9.25;6.40;;;;;;;;;;5056999;28;20057;-75
2022/06/27 02:11:15;;;;;;;8.57;5.75;;;;;;;;;;5040234;28;20120;-75
2022/06/27 02:13:42;;;;;;;9.25;6.40;;;;;;;;;;5056635;28;20075;-75
2022/06/27 02:16:10;;;;;;;8.40;6.57;;;;;;;;;;5056485;28;20040;-75
2022/06/27 02:18:36;;;;;;;10.63;6.70;;;;;;;;;;5040082;28;20037;-75
2022/06/27 02:21:03;;;;;;;11.02;7.22;;;;;;;;;;5056014;28;20033;-74
2022/06/27 02:23:29;;;;;;;11.05;6.70;;;;;;;;;;5056112;28;20493;-75
2022/06/27 02:25:56;;;;;;;7.97;6.30;;;;;;;;;;5056485;28;20044;-75
2022/06/27 02:28:23;;;;;;;15.35;7.93;;;;;;;;;;5056782;28;20049;-75
2022/06/27 02:30:49;;;;;;;15.00;8.00;;;;;;;;;;5057641;28;20041;-75
2022/06/27 02:33:16;;;;;;;10.80;7.88;;;;;;;;;;5056070;28;20489;-75
2022/06/27 02:35:43;;;;;;;10.75;7.70;;;;;;;;;;5057869;28;20121;-75
2022/06/27 02:38:10;;;;;;;10.63;7.78;;;;;;;;;;5056351;28;20039;-75
2022/06/27 02:40:40;;;;;;;10.10;7.22;;;;;;;;;;5056543;28;20420;-76
2022/06/27 02:43:08;;;;;;;12.90;8.20;;;;;;;;;;5056084;28;20124;-75
2022/06/27 02:45:36;;;;;;;13.57;7.78;;;;;;;;;;5067766;28;20051;-75
2022/06/27 02:48:03;;;;;;;9.15;6.82;;;;;;;;;;5076499;28;20560;-76
2022/06/27 02:50:32;;;;;;;10.02;8.00;;;;;;;;;;5065952;28;20119;-76
2022/06/27 02:53:00;;;;;;;12.05;8.20;;;;;;;;;;5065300;28;20052;-76
2022/06/27 02:55:27;;;;;;;10.23;7.57;;;;;;;;;;5045468;28;20128;-76
2022/06/27 02:58:01;;;;;;;12.52;6.85;;;;;;;;;;5077164;28;20094;-76
2022/06/27 03:00:32;;;;;;;9.15;7.80;;;;;;;;;;5060137;28;20044;-76
2022/06/27 03:02:59;;;;;;;11.18;8.40;;;;;;;;;;5059450;28;20041;-76
2022/06/27 03:05:25;;;;;;;9.10;7.65;;;;;;;;;;5064780;28;20474;-76
2022/06/27 03:07:51;;;;;;;11.30;7.50;;;;;;;;;;5076750;28;20501;-75
2022/06/27 03:10:17;;;;;;;10.52;7.50;;;;;;;;;;5072141;28;20073;-76
2022/06/27 03:12:43;;;;;;;11.38;8.23;;;;;;;;;;5066912;28;20040;-75
2022/06/27 03:15:10;;;;;;;12.00;7.50;;;;;;;;;;5074256;28;20044;-75
2022/06/27 03:17:36;;;;;;;11.10;7.18;;;;;;;;;;5069553;28;20078;-75
2022/06/27 03:20:02;;;;;;;11.15;7.28;;;;;;;;;;5065293;28;20041;-74
2022/06/27 03:22:28;;;;;;;9.80;7.82;;;;;;;;;;5046604;28;20063;-75
2022/06/27 03:24:54;;;;;;;10.43;7.95;;;;;;;;;;5068603;28;20037;-75
2022/06/27 03:27:20;;;;;;;11.88;8.27;;;;;;;;;;5055971;28;20036;-75
2022/06/27 03:29:46;;;;;;;9.63;7.70;;;;;;;;;;5052709;28;20035;-75
2022/06/27 03:32:12;;;;;;;12.10;7.93;;;;;;;;;;5056021;28;20041;-75
2022/06/27 03:34:38;;;;;;;10.65;7.03;;;;;;;;;;5057387;28;20510;-75
2022/06/27 03:37:04;;;;;;;10.88;7.25;;;;;;;;;;5072887;28;20396;-75
2022/06/27 03:39:32;;;;;;;10.88;7.82;;;;;;;;;;5072681;28;20044;-75
2022/06/27 03:41:58;;;;;;;11.27;8.00;;;;;;;;;;5039706;28;20127;-75
2022/06/27 03:44:24;;;;;;;11.50;8.68;;;;;;;;;;5062374;28;20095;-75
2022/06/27 03:46:50;;;;;;;10.23;8.32;;;;;;;;;;5040561;28;20044;-75
2022/06/27 03:52:01;;;;;;;12.98;8.43;;;;;;;;;;5072020;28;20119;-75
2022/06/27 03:54:27;;;;;;;11.07;8.63;;;;;;;;;;5064653;28;20053;-75
2022/06/27 03:56:56;;;;;;;13.43;9.77;;;;;;;;;;5056169;28;20094;-75
2022/06/27 03:59:22;;;;;;;11.43;9.23;;;;;;;;;;5073645;28;20044;-75
2022/06/27 04:01:48;;;;;;;12.57;8.30;;;;;;;;;;5060418;28;20069;-75
2022/06/27 04:04:14;;;;;;;12.20;8.32;;;;;;;;;;5040588;28;20049;-75
2022/06/27 04:06:40;;;;;;;14.27;9.80;;;;;;;;;;5034452;28;20121;-75
2022/06/27 04:09:06;;;;;;;12.70;9.50;;;;;;;;;;5053531;28;20112;-75
2022/06/27 04:11:32;;;;;;;11.75;9.68;;;;;;;;;;5035311;28;20037;-75
2022/06/27 04:13:58;;;;;;;11.60;9.10;;;;;;;;;;5051966;28;20493;-75
2022/06/27 04:16:24;;;;;;;12.57;9.27;;;;;;;;;;5034972;28;20045;-75
2022/06/27 04:18:50;;;;;;;12.85;9.55;;;;;;;;;;5035196;28;20037;-75
2022/06/27 04:21:16;;;;;;;11.98;9.80;;;;;;;;;;5051639;28;20091;-75
2022/06/27 04:23:42;;;;;;;12.23;9.85;;;;;;;;;;5035250;28;20120;-75
2022/06/27 04:26:08;;;;;;;12.13;9.70;;;;;;;;;;5051588;28;20036;-76
2022/06/27 04:28:35;;;;;;;12.80;10.10;;;;;;;;;;5051006;28;20068;-75
2022/06/27 04:31:02;;;;;;;13.55;9.45;;;;;;;;;;5051684;28;20041;-75
2022/06/27 04:33:29;;;;;;;12.90;9.73;;;;;;;;;;5051252;28;20550;-75
2022/06/27 04:35:55;;;;;;;12.75;9.30;;;;;;;;;;5051529;28;20044;-75
2022/06/27 04:38:21;;;;;;;16.23;10.63;;;;;;;;;;5051180;28;20102;-75
2022/06/27 04:40:47;;;;;;;15.23;9.98;;;;;;;;;;5052790;28;20063;-73
2022/06/27 04:43:14;;;;;;;10.90;9.10;;;;;;;;;;5051046;28;20047;-73
2022/06/27 04:45:40;;;;;;;12.25;8.77;;;;;;;;;;5051525;28;20048;-73
2022/06/27 04:48:07;;;;;;;11.13;8.38;;;;;;;;;;5050731;28;20041;-73
2022/06/27 04:50:35;;;;;;;11.82;8.90;;;;;;;;;;5050761;28;20045;-73
2022/06/27 04:53:01;;;;;;;10.15;7.80;;;;;;;;;;5063749;28;20053;-73
2022/06/27 04:55:28;;;;;;;10.20;7.63;;;;;;;;;;5070791;28;20045;-73
2022/06/27 04:57:55;;;;;;;15.18;8.85;;;;;;;;;;5062492;28;20448;-73
2022/06/27 05:00:21;;;;;;;11.75;8.80;;;;;;;;;;5053499;28;20090;-73
2022/06/27 05:02:47;;;;;;;13.68;9.02;;;;;;;;;;5054897;28;20175;-73
2022/06/27 05:05:13;;;;;;;11.02;8.85;;;;;;;;;;5071045;28;20549;-73
2022/06/27 05:07:39;;;;;;;11.23;8.93;;;;;;;;;;5068062;28;20036;-72
2022/06/27 05:10:06;;;;;;;12.52;9.02;;;;;;;;;;5053362;28;20118;-72
2022/06/27 05:12:32;;;;;;;13.30;9.15;;;;;;;;;;5053421;28;20044;-73
2022/06/27 05:14:59;;;;;;;11.95;8.25;;;;;;;;;;5070896;28;20040;-72
2022/06/27 05:17:25;;;;;;;11.82;9.30;;;;;;;;;;5070600;28;20032;-72
2022/06/27 05:19:51;;;;;;;11.52;9.02;;;;;;;;;;5043153;28;20465;-74
2022/06/27 05:22:18;;;;;;;12.73;8.90;;;;;;;;;;5066265;28;20111;-73
2022/06/27 05:24:44;;;;;;;11.88;8.05;;;;;;;;;;5063601;28;20122;-73
2022/06/27 05:27:10;;;;;;;11.13;8.07;;;;;;;;;;5060367;28;20091;-73
2022/06/27 05:29:37;;;;;;;11.38;8.18;;;;;;;;;;5049051;28;20044;-72
2022/06/27 05:32:03;;;;;;;14.25;8.57;;;;;;;;;;5054929;28;20091;-73
2022/06/27 05:34:29;;;;;;;10.63;8.20;;;;;;;;;;5048854;28;20060;-72
2022/06/27 05:36:56;;;;;;;11.45;8.68;;;;;;;;;;5049903;28;20044;-72
2022/06/27 05:39:22;;;;;;;12.95;8.68;;;;;;;;;;5049991;28;20041;-73
2022/06/27 05:41:48;;;;;;;10.57;7.68;;;;;;;;;;5050664;28;20100;-72
2022/06/27 05:44:15;;;;;;;9.93;7.38;;;;;;;;;;5050292;28;20048;-73
2022/06/27 05:46:41;;;;;;;11.48;7.30;;;;;;;;;;5033298;28;20533;-73
2022/06/27 05:49:11;;;;;;;9.32;7.72;;;;;;;;;;5028241;28;20583;-73
2022/06/27 05:51:37;;;;;;;11.93;7.85;;;;;;;;;;5052136;28;20067;-73
2022/06/27 05:54:05;;;;;;;12.32;8.02;;;;;;;;;;5057717;28;20062;-73
2022/06/27 05:56:32;;;;;;;10.13;7.68;;;;;;;;;;5063731;28;20101;-73
2022/06/27 05:58:58;;;;;;;9.88;7.63;;;;;;;;;;5051301;28;20102;-73
2022/06/27 06:01:25;;;;;;;11.13;8.02;;;;;;;;;;5062214;28;20508;-73
2022/06/27 06:03:52;;;;;;;11.25;7.68;;;;;;;;;;5052948;28;20059;-73
2022/06/27 06:06:18;;;;;;;11.35;8.10;;;;;;;;;;5050343;28;20125;-73
2022/06/27 06:08:45;;;;;;;10.70;8.18;;;;;;;;;;5069515;28;20040;-73
2022/06/27 06:11:13;;;;;;;12.10;8.85;;;;;;;;;;5062435;28;20032;-73
2022/06/27 06:13:41;;;;;;;11.05;8.48;;;;;;;;;;5050706;28;20125;-73
2022/06/27 06:16:09;;;;;;;15.65;9.55;;;;;;;;;;5067853;28;20239;-73
2022/06/27 06:18:35;;;;;;;12.35;9.32;;;;;;;;;;5052261;28;20041;-73
2022/06/27 06:21:02;;;;;;;10.90;8.75;;;;;;;;;;5068938;28;20043;-72
2022/06/27 06:23:28;;;;;;;11.18;8.95;;;;;;;;;;5056980;28;20056;-73
2022/06/27 06:25:54;;;;;;;13.93;9.20;;;;;;;;;;5067639;28;20068;-73
2022/06/27 06:28:20;;;;;;;13.23;8.70;;;;;;;;;;5053586;28;20037;-74
2022/06/27 06:30:47;;;;;;;11.55;7.72;;;;;;;;;;5064851;28;20049;-73
2022/06/27 06:33:13;;;;;;;11.98;8.70;;;;;;;;;;5070148;28;20124;-74
2022/06/27 06:35:39;;;;;;;11.40;8.55;;;;;;;;;;5052950;28;20040;-74
2022/06/27 06:38:06;;;;;;;9.77;8.25;;;;;;;;;;5064147;28;20507;-74
2022/06/27 06:40:32;;;;;;;11.55;8.90;;;;;;;;;;5061885;28;20045;-75
2022/06/27 06:43:03;;;;;;;8.48;6.93;;;;;;;;;;5070490;28;20033;-74
2022/06/27 06:45:30;;;;;;;8.32;6.47;;;;;;;;;;5072770;28;20044;-74
2022/06/27 06:47:57;;;;;;;8.52;6.18;;;;;;;;;;5070558;28;20508;-75
2022/06/27 06:50:23;;;;;;;9.32;6.90;;;;;;;;;;5062050;28;20043;-74
2022/06/27 06:52:50;;;;;;;10.63;7.47;;;;;;;;;;5068260;28;20132;-74
2022/06/27 06:55:17;;;;;;;7.90;6.50;;;;;;;;;;5073809;28;20048;-75
2022/06/27 06:57:43;;;;;;;8.50;6.10;;;;;;;;;;5073278;28;20052;-75
2022/06/27 07:00:11;;;;;;;8.75;5.82;;;;;;;;;;5053140;28;20037;-74
2022/06/27 07:02:37;;;;;;;8.60;5.50;;;;;;;;;;5053243;28;20116;-75
2022/06/27 07:05:04;;;;;;;7.38;5.80;;;;;;;;;;5053854;28;20477;-74
2022/06/27 07:07:32;;;;;;;9.23;6.32;;;;;;;;;;5054419;28;20116;-74
2022/06/27 07:09:59;;;;;;;8.50;6.40;;;;;;;;;;5053178;28;20559;-74
2022/06/27 07:12:26;;;;;;;8.18;6.55;;;;;;;;;;5037205;28;20037;-75
2022/06/27 07:14:54;;;;;;;7.05;5.70;;;;;;;;;;5052977;28;20085;-74
2022/06/27 07:17:24;;;;;;;7.97;5.63;;;;;;;;;;5052757;28;20079;-76
2022/06/27 07:19:52;;;;;;;7.65;4.95;;;;;;;;;;5052178;28;20044;-74
2022/06/27 07:22:19;;;;;;;7.38;5.15;;;;;;;;;;5035240;28;20055;-74
2022/06/27 07:24:48;;;;;;;6.72;4.90;;;;;;;;;;5049542;28;20044;-74
2022/06/27 07:27:15;;;;;;;6.88;4.65;;;;;;;;;;5051682;28;20049;-72
2022/06/27 07:29:41;;;;;;;8.15;4.88;;;;;;;;;;5034991;28;20116;-74
2022/06/27 07:32:08;;;;;;;7.00;4.97;;;;;;;;;;5052796;28;20045;-74
2022/06/27 07:34:38;;;;;;;6.75;5.28;;;;;;;;;;5052047;28;20504;-74
2022/06/27 07:37:04;;;;;;;6.60;5.10;;;;;;;;;;5053021;28;20055;-75
2022/06/27 07:39:30;;;;;;;7.60;5.43;;;;;;;;;;5052871;28;20029;-74
2022/06/27 07:41:57;;;;;;;6.45;5.43;;;;;;;;;;5051758;28;20413;-74
2022/06/27 07:44:24;;;;;;;9.70;5.93;;;;;;;;;;5054072;28;20051;-74
2022/06/27 07:46:50;;;;;;;7.85;4.90;;;;;;;;;;5051387;28;20138;-74
2022/06/27 07:49:16;;;;;;;7.13;5.38;;;;;;;;;;5053048;28;20047;-74
2022/06/27 07:51:43;;;;;;;8.35;5.50;;;;;;;;;;5052583;28;20127;-74
2022/06/27 07:54:10;;;;;;;6.53;5.28;;;;;;;;;;5047018;28;20486;-75
2022/06/27 07:56:37;;;;;;;9.30;6.03;;;;;;;;;;5038381;28;20521;-74
2022/06/27 07:59:06;;;;;;;6.90;5.20;;;;;;;;;;5055111;28;20099;-73
2022/06/27 08:01:33;;;;;;;7.45;5.60;;;;;;;;;;5060527;28;20444;-74
2022/06/27 08:04:01;;;;;;;8.85;5.38;;;;;;;;;;5041673;28;20123;-75
2022/06/27 08:06:28;;;;;;;7.70;5.30;;;;;;;;;;5063994;28;20060;-74
2022/06/27 08:09:02;;;;;;;7.25;5.13;;;;;;;;;;5062115;28;20048;-74
2022/06/27 08:11:30;;;;;;;7.40;5.28;;;;;;;;;;5066087;28;20573;-75
2022/06/27 08:13:57;;;;;;;7.53;4.72;;;;;;;;;;5067836;28;20037;-74
2022/06/27 08:16:24;;;;;;;8.50;5.60;;;;;;;;;;5072350;28;20044;-75
2022/06/27 08:18:51;;;;;;;7.80;4.72;;;;;;;;;;5064538;28;20041;-74
2022/06/27 08:21:20;;;;;;;6.47;4.55;;;;;;;;;;5070934;28;20099;-75
2022/06/27 08:23:46;;;;;;;7.55;4.30;;;;;;;;;;5066681;28;20480;-75
2022/06/27 08:26:13;;;;;;;5.72;3.70;;;;;;;;;;5071910;28;20093;-75
2022/06/27 08:28:40;;;;;;;6.15;4.30;;;;;;;;;;5069053;28;20143;-73
2022/06/27 08:31:08;;;;;;;6.25;4.95;;;;;;;;;;5065829;28;20044;-74
2022/06/27 08:33:34;;;;;;;7.40;4.90;;;;;;;;;;5046748;28;20044;-74
2022/06/27 08:36:02;;;;;;;6.43;4.72;;;;;;;;;;5073035;28;20045;-74
2022/06/27 08:38:28;;;;;;;7.65;5.05;;;;;;;;;;5072811;28;20076;-73
2022/06/27 08:40:55;;;;;;;6.47;5.13;;;;;;;;;;5055688;28;20131;-73
2022/06/27 08:43:22;;;;;;;7.00;4.70;;;;;;;;;;5060092;28;20151;-73
2022/06/27 08:45:50;;;;;;;8.50;4.72;;;;;;;;;;5071353;28;20090;-74
2022/06/27 08:48:17;;;;;;;5.93;4.20;;;;;;;;;;5055281;28;20037;-74
2022/06/27 08:50:45;;;;;;;5.35;3.70;;;;;;;;;;5060034;28;20516;-74
2022/06/27 08:53:12;;;;;;;6.82;4.88;;;;;;;;;;5056509;28;20125;-74
2022/06/27 08:55:42;;;;;;;6.07;4.13;;;;;;;;;;5044031;28;20115;-74
2022/06/27 08:58:10;;;;;;;6.57;3.85;;;;;;;;;;5071974;28;20532;-73
2022/06/27 09:00:40;;;;;;;5.40;3.03;;;;;;;;;;5050021;28;20040;-73
2022/06/27 09:03:07;;;;;;;5.68;4.28;;;;;;;;;;5051355;28;20045;-74
2022/06/27 09:05:34;;;;;;;8.27;4.30;;;;;;;;;;5050427;28;20033;-74
2022/06/27 09:08:02;;;;;;;6.50;3.60;;;;;;;;;;5050294;28;20073;-74
2022/06/27 09:10:29;;;;;;;6.45;4.07;;;;;;;;;;5034819;28;20045;-74
2022/06/27 09:12:59;;;;;;;6.78;4.05;;;;;;;;;;5049502;28;20049;-74
2022/06/27 09:15:48;;;;;;;4.78;3.70;;;;;;;;;;5049299;28;20044;-74
2022/06/27 09:18:20;;;;;;;4.97;3.35;;;;;;;;;;5032437;28;20579;-74
2022/06/27 09:20:51;;;;;;;6.35;3.70;;;;;;;;;;5049729;28;20049;-74
2022/06/27 09:23:53;;;;;;;6.47;4.10;;;;;;;;;;5051464;28;20127;-73
2022/06/27 09:26:25;;;;;;;6.35;3.60;;;;;;;;;;5047299;28;20048;-74
2022/06/27 09:28:53;;;;;;;4.45;3.55;;;;;;;;;;5050624;28;20401;-75
2022/06/27 09:31:30;;;;;;;5.28;3.92;;;;;;;;;;5049924;28;20059;-74
2022/06/27 09:34:08;;;;;;;6.15;4.07;;;;;;;;;;5049981;28;20052;-74
2022/06/27 09:36:35;;;;;;;5.93;4.10;;;;;;;;;;5034265;28;20040;-74
2022/06/27 09:39:02;;;;;;;9.93;4.47;;;;;;;;;;5033650;28;20417;-74
2022/06/27 09:41:33;;;;;;;6.72;4.32;;;;;;;;;;5033362;28;20039;-74
2022/06/27 09:44:11;;;;;;;5.43;3.30;;;;;;;;;;5050052;28;20068;-74
2022/06/27 09:46:42;;;;;;;7.13;4.10;;;;;;;;;;5050311;28;20078;-74
2022/06/27 09:49:12;;;;;;;5.63;3.63;;;;;;;;;;5034402;28;20127;-74
2022/06/27 09:51:38;;;;;;;7.57;4.50;;;;;;;;;;5050379;28;20072;-74
2022/06/27 09:54:16;;;;;;;6.38;4.03;;;;;;;;;;5057285;28;20049;-74
2022/06/27 09:56:42;;;;;;;6.72;3.80;;;;;;;;;;5070430;28;20124;-74
2022/06/27 09:59:12;;;;;;;8.75;5.32;;;;;;;;;;5070104;28;20094;-74
2022/06/27 10:01:41;;;;;;;5.40;4.30;;;;;;;;;;5070955;28;20536;-75
2022/06/27 10:04:08;;;;;;;7.75;5.00;;;;;;;;;;5055283;28;20106;-74
2022/06/27 10:06:35;;;;;;;7.22;4.10;;;;;;;;;;5070578;28;20127;-74
2022/06/27 10:09:04;;;;;;;4.93;3.88;;;;;;;;;;5069796;28;20036;-74
2022/06/27 10:11:30;;;;;;;6.22;4.07;;;;;;;;;;5070402;28;20052;-74
2022/06/27 10:14:13;;;;;;;7.43;4.13;;;;;;;;;;5061251;28;20048;-74
2022/06/27 10:16:58;;;;;;;6.72;4.85;;;;;;;;;;5053292;28;20083;-73
2022/06/27 10:19:30;;;;;;;5.70;4.40;;;;;;;;;;5062733;28;20079;-71
2022/06/27 10:21:57;;;;;;;6.72;4.43;;;;;;;;;;5073737;28;20048;-72
2022/06/27 10:24:26;;;;;;;8.90;4.65;;;;;;;;;;5066429;28;20131;-75
2022/06/27 10:26:53;;;;;;;7.35;5.00;;;;;;;;;;5065788;28;20493;-74
2022/06/27 10:29:29;;;;;;;8.00;4.47;;;;;;;;;;5072132;28;20037;-75
2022/06/27 10:31:55;;;;;;;6.68;4.85;;;;;;;;;;5074263;28;20048;-73
2022/06/27 10:34:39;;;;;;;7.15;4.45;;;;;;;;;;5067636;28;20132;-73
2022/06/27 10:37:26;;;;;;;6.28;5.13;;;;;;;;;;5061159;28;20076;-73
2022/06/27 10:40:11;;;;;;;8.20;4.70;;;;;;;;;;5035708;28;20037;-73
2022/06/27 10:42:47;;;;;;;8.77;4.80;;;;;;;;;;5052011;28;20036;-73
2022/06/27 10:45:34;;;;;;;7.55;5.28;;;;;;;;;;5049685;28;20041;-73
2022/06/27 10:48:03;;;;;;;9.48;5.40;;;;;;;;;;5050705;28;20033;-75
2022/06/27 10:50:40;;;;;;;8.25;5.68;;;;;;;;;;5053903;28;20115;-75
2022/06/27 10:53:25;;;;;;;9.98;6.65;;;;;;;;;;5053465;28;20414;-76
2022/06/27 10:55:52;;;;;;;11.30;6.60;;;;;;;;;;5050234;28;20094;-75
2022/06/27 10:58:47;;;;;;;9.90;5.90;;;;;;;;;;5063964;28;20127;-75
2022/06/27 11:01:18;;;;;;;9.32;6.38;;;;;;;;;;5055757;28;20052;-73
2022/06/27 11:03:44;;;;;;;7.22;6.20;;;;;;;;;;5061200;28;20080;-73
2022/06/27 11:06:13;;;;;;;8.38;6.25;;;;;;;;;;5038676;28;20099;-75
2022/06/27 11:08:40;;;;;;;11.48;6.55;;;;;;;;;;5052140;28;20124;-76
2022/06/27 11:11:07;;;;;;;8.60;7.07;;;;;;;;;;5076081;28;20041;-73
2022/06/27 11:13:46;;;;;;;8.15;6.18;;;;;;;;;;5051432;28;20037;-73
2022/06/27 11:16:17;;;;;;;10.98;6.70;;;;;;;;;;5080884;28;20529;-74
2022/06/27 11:18:44;;;;;;;9.77;6.78;;;;;;;;;;5051989;28;20456;-74
2022/06/27 11:21:11;;;;;;;11.38;6.60;;;;;;;;;;5052873;28;20079;-75
2022/06/27 11:23:56;;;;;;;9.82;6.28;;;;;;;;;;5050882;28;20040;-75
2022/06/27 11:26:23;;;;;;;8.27;6.73;;;;;;;;;;5046555;28;20052;-75
2022/06/27 11:34:19;;;;;;;8.98;7.38;;;;;;;;;;5051748;28;20051;-73
2022/06/27 11:36:46;;;;;;;6.95;5.93;;;;;;;;;;5053209;28;20375;-73
2022/06/27 11:39:14;;;;;;;8.88;6.63;;;;;;;;;;5019747;28;20537;-73
2022/06/27 11:41:40;;;;;;;12.23;7.10;;;;;;;;;;5053130;28;20048;-73
2022/06/27 11:44:11;;;;;;;8.75;5.88;;;;;;;;;;5051392;28;20124;-73
2022/06/27 11:46:45;;;;;;;7.78;5.50;;;;;;;;;;5052628;28;20041;-74
2022/06/27 11:49:21;;;;;;;6.93;5.72;;;;;;;;;;5040998;28;20041;-74
2022/06/27 11:51:48;;;;;;;8.63;6.03;;;;;;;;;;5054924;28;20053;-75
2022/06/27 11:54:19;;;;;;;9.98;6.78;;;;;;;;;;5066020;28;20064;-73
2022/06/27 11:56:46;;;;;;;9.13;6.65;;;;;;;;;;5067794;28;20109;-74
2022/06/27 11:59:13;;;;;;;9.75;6.38;;;;;;;;;;5071787;28;20036;-76
2022/06/27 12:01:55;;;;;;;7.43;5.82;;;;;;;;;;5072577;28;20040;-77
2022/06/27 12:04:24;;;;;;;7.68;6.32;;;;;;;;;;5045624;28;20037;-77
2022/06/27 12:06:52;;;;;;;7.97;5.80;;;;;;;;;;5058863;28;20048;-77
2022/06/27 12:09:19;;;;;;;8.07;5.70;;;;;;;;;;5052557;28;20044;-77
2022/06/27 12:11:50;;;;;;;7.85;5.28;;;;;;;;;;5051686;28;20363;-77
2022/06/27 12:14:16;;;;;;;8.27;5.25;;;;;;;;;;5051571;28;20052;-77
2022/06/27 12:16:46;;;;;;;9.30;5.75;;;;;;;;;;5049322;28;20029;-77
2022/06/27 12:19:12;;;;;;;7.82;5.55;;;;;;;;;;5030036;28;20063;-77
2022/06/27 12:21:39;;;;;;;8.60;4.75;;;;;;;;;;5014029;28;20438;-77
2022/06/27 12:24:05;;;;;;;7.57;5.35;;;;;;;;;;5023796;28;20045;-77
2022/06/27 12:26:31;;;;;;;7.05;5.10;;;;;;;;;;5049245;28;20051;-77
2022/06/27 12:28:57;;;;;;;7.65;4.80;;;;;;;;;;5033634;28;20080;-77
2022/06/27 12:31:23;;;;;;;9.30;5.85;;;;;;;;;;5034324;28;20563;-76
2022/06/27 12:33:49;;;;;;;8.70;5.78;;;;;;;;;;5051752;28;20045;-77
2022/06/27 12:36:15;;;;;;;7.90;6.05;;;;;;;;;;5034168;28;20044;-76
2022/06/27 12:38:42;;;;;;;9.07;6.05;;;;;;;;;;5051470;28;20044;-77
2022/06/27 12:41:17;;;;;;;7.55;5.55;;;;;;;;;;5051323;28;20047;-77
2022/06/27 12:43:44;;;;;;;7.78;5.55;;;;;;;;;;5051547;28;20120;-76
2022/06/27 12:46:11;;;;;;;7.00;4.82;;;;;;;;;;5082738;28;20116;-76
2022/06/27 12:48:37;;;;;;;7.78;5.25;;;;;;;;;;5049755;28;20044;-76
2022/06/27 12:51:04;;;;;;;8.27;5.68;;;;;;;;;;5047731;28;20409;-77
2022/06/27 12:53:30;;;;;;;10.65;5.90;;;;;;;;;;5067055;28;20245;-76
2022/06/27 12:56:01;;;;;;;6.22;5.28;;;;;;;;;;5067895;28;20581;-76
2022/06/27 12:58:27;;;;;;;8.90;5.43;;;;;;;;;;5055914;28;20486;-76
2022/06/27 13:00:53;;;;;;;9.27;4.93;;;;;;;;;;5059831;28;20416;-77
2022/06/27 13:03:19;;;;;;;12.32;5.68;;;;;;;;;;5070287;28;20048;-76
2022/06/27 13:05:45;;;;;;;10.07;5.45;;;;;;;;;;5071334;28;20439;-76
2022/06/27 13:08:11;;;;;;;10.57;5.60;;;;;;;;;;5071119;28;20040;-76
2022/06/27 13:10:38;;;;;;;8.85;5.40;;;;;;;;;;5041349;28;20048;-76
2022/06/27 13:13:04;;;;;;;10.80;5.90;;;;;;;;;;5067548;28;20537;-76
2022/06/27 13:15:32;;;;;;;9.77;6.72;;;;;;;;;;5062159;28;20032;-76
2022/06/27 13:17:58;;;;;;;7.82;5.68;;;;;;;;;;5056159;28;20485;-76
2022/06/27 13:20:25;;;;;;;8.60;6.30;;;;;;;;;;5070738;28;20492;-76
2022/06/27 13:22:51;;;;;;;9.27;6.25;;;;;;;;;;5058058;28;20098;-76
2022/06/27 13:25:18;;;;;;;10.57;6.50;;;;;;;;;;5053332;28;20072;-76
2022/06/27 13:27:44;;;;;;;8.45;6.30;;;;;;;;;;5047248;28;20045;-76
2022/06/27 13:30:11;;;;;;;8.52;6.50;;;;;;;;;;5047985;28;20448;-76
2022/06/27 13:32:37;;;;;;;8.15;6.20;;;;;;;;;;5049784;28;20461;-77
2022/06/27 13:35:03;;;;;;;8.48;5.78;;;;;;;;;;5034499;28;20401;-77
2022/06/27 13:37:29;;;;;;;8.52;6.20;;;;;;;;;;5033877;28;20123;-77
2022/06/27 13:39:55;;;;;;;7.47;5.15;;;;;;;;;;5050227;28;20033;-77
2022/06/27 13:42:21;;;;;;;8.77;4.93;;;;;;;;;;5050464;28;20033;-76
2022/06/27 13:44:48;;;;;;;7.70;4.85;;;;;;;;;;5050348;28;20044;-76
2022/06/27 13:47:14;;;;;;;7.22;4.82;;;;;;;;;;5050351;28;20107;-76
2022/06/27 13:49:40;;;;;;;8.38;5.38;;;;;;;;;;5050574;28;20489;-76
2022/06/27 13:52:07;;;;;;;9.90;5.40;;;;;;;;;;5049972;28;20037;-77
2022/06/27 13:54:33;;;;;;;7.03;4.63;;;;;;;;;;5061061;28;20127;-76
2022/06/27 13:57:00;;;;;;;8.52;5.20;;;;;;;;;;5070596;28;20044;-73
2022/06/27 13:59:26;;;;;;;8.85;5.07;;;;;;;;;;5053662;28;20051;-73
2022/06/27 14:01:52;;;;;;;7.13;4.80;;;;;;;;;;5066771;28;20043;-73
2022/06/27 14:04:18;;;;;;;9.70;4.78;;;;;;;;;;5065779;28;20040;-72
2022/06/27 14:09:29;;;;;;;6.82;4.63;;;;;;;;;;5064547;28;20074;-73
2022/06/27 14:11:55;;;;;;;11.60;4.60;;;;;;;;;;5070762;28;20044;-72
2022/06/27 14:14:21;;;;;;;7.40;4.03;;;;;;;;;;5037124;28;20519;-73
2022/06/27 14:16:47;;;;;;;8.77;4.50;;;;;;;;;;5068196;28;20044;-76
2022/06/27 14:19:16;;;;;;;7.88;4.35;;;;;;;;;;5066158;28;20090;-75
2022/06/27 14:21:42;;;;;;;10.23;5.18;;;;;;;;;;5070156;28;20049;-75
2022/06/27 14:24:08;;;;;;;9.20;5.47;;;;;;;;;;5064714;28;20086;-75
2022/06/27 14:26:35;;;;;;;8.52;4.95;;;;;;;;;;5058942;28;20119;-75
2022/06/27 14:29:01;;;;;;;6.85;5.50;;;;;;;;;;5058881;28;20055;-75
2022/06/27 14:31:28;;;;;;;9.98;6.13;;;;;;;;;;5036622;28;20444;-75
2022/06/27 14:33:54;;;;;;;9.70;5.25;;;;;;;;;;5057401;28;20079;-75
2022/06/27 14:36:20;;;;;;;8.95;5.90;;;;;;;;;;5037554;28;20029;-75
2022/06/27 14:38:46;;;;;;;9.23;5.40;;;;;;;;;;5062724;28;20051;-78
2022/06/27 14:41:13;;;;;;;10.18;5.55;;;;;;;;;;5040335;28;20504;-77
2022/06/27 14:43:39;;;;;;;8.52;5.65;;;;;;;;;;5048615;28;20106;-75
2022/06/27 14:46:05;;;;;;;8.43;5.65;;;;;;;;;;5052978;28;20142;-78
2022/06/27 14:48:33;;;;;;;12.07;6.05;;;;;;;;;;5051059;28;20076;-77
2022/06/27 14:50:59;;;;;;;7.55;5.45;;;;;;;;;;5032451;28;20051;-77
2022/06/27 14:53:26;;;;;;;10.05;5.60;;;;;;;;;;5049999;28;20079;-77